Morrisdale, PA (16858)

11:20 AM EDT on July 23, 2017 (GMT -0400)
West Decatur | | Change Station

Elev 1795 ft 40.97 °N, 78.31 °W | Updated 13 minutes ago

Overcast
Overcast
78.1 °F
Feels Like 80 °F
N
1.7
Wind Variable Wind from SSW

Today
High -- | Low -- °F
--% Chance of Precip.
Yesterday
High -- | Low -- °F
Precip. -- in
Pressure 29.80 in
Visibility 10.0 miles
Clouds Scattered Clouds 1100 ft
Scattered Clouds 1700 ft
Mostly Cloudy 2200 ft
Heat Index 80 °F
Dew Point 70 °F
Humidity 75%
Rainfall 0.19 in
Snow Depth Not available.
6:00 AM 8:37 PM
New Moon, 0% visible
METAR KFIG 231454Z AUTO 23007KT 10SM SCT011 SCT017 BKN022 24/22 A2983 RMK AO2 SLP091 T02440222 50000
Pressure 29.80 in
Visibility 10.0 miles
Clouds Scattered Clouds 1100 ft
Scattered Clouds 1700 ft
Mostly Cloudy 2200 ft
Heat Index 80 °F
Dew Point 70 °F
Humidity 75%
Rainfall 0.19 in
Snow Depth Not available.
6:00 AM 8:37 PM
New Moon, 0% visible
METAR KFIG 231454Z AUTO 23007KT 10SM SCT011 SCT017 BKN022 24/22 A2983 RMK AO2 SLP091 T02440222 50000

Get Severe Weather Alerts

Thanks for signing up!

Be on the lookout for a verification email in your inbox.

You'll start receiving the daily forecast at 6 AM.

×

10-Day Weather Forecast

Almanac

Astronomy

Jul. 23, 2017 Rise Set
Actual Time
Civil Twilight
Nautical Twilight
Astronomical Twilight
Moon
Length of Visible Light
Length of Day
Tomorrow will be .
, % of the Moon is Illuminated

Today's Extremes

State Highs State Lows

Community

WunderPhotos

Category 6

Welcome to Category 6. This is the collective home for Weather Underground's featured writeups by Dr. Jeff Masters (right), Bob Henson (left), Chris Burt, and other regular contributors.

Nearby

Air Quality

  Air Quality AQ Index Pollutant
Not available.

Snow Depth

Station Depth Elevation

Earthquake Activity

City Distance Mag. Time & Date
Minimum magnitude displayed is 2.5.

Coastal Water Temperatures

Place Temperature

Stations

Nearby Weather Stations

Station Location Temp. Windchill Dew Point Humidity Wind Precip. Elev Updated Type
                   

Watches & Warnings

There are currently no watches in effect.